Hollis Center, Maine
Current Conditions -  °F | °C
As of 5:51 AM on Thursday 27 Nov 2014 (Local Time) from KPWM Reporting Station
Haze Haze  
Wind Chill: 22°   Ceiling: 7500
Heat Index: 32°   Visibility: 6mi
Dew Point: 27°   Wind: 14mph
Humidity: 82%   Direction: 330°NNW
Pressure: 29.81"   Gusts: 23mph
Location:  43.6°N, 70.59°W
Report Text: KPWM 271051Z 33012G20KT 6SM HZ FEW021 SCT050 BKN075 00/M03 A2981 RMK AO2 PK WND 36027/0956 SNE15 SLP094 P0000 T00001028 $
Loading
Personal Weather Stations






























Interactive Weather Map New forecast layout! Learn more

10-Day Weather Forecast

Advertisements
Track Severe Weather on mobile